Archival Weather

Aeroparque Jorge Newbery

Buenos Aires, Argentina (SABE)

Report from: Sunday, March 19, 2023 11:00 AM -03
Current time: Tuesday, February 27, 2024 8:20 AM -03

Current weather – Weather history – Daily summaries
Weather forecast

Present weatherRain showers
Temperature28.0°C (82.4°F)
Heat index31.4°C (88.5°F)
Dew point23.0°C (73.4°F)
Winds 4 kts (2.1 m/s, 4.6 mph) Vrb
Wind gusts 25 kts (12.9 m/s, 28.8 mph)
Winds variableWinds variable
Visibility6.2 mi. (10 km)
Clouds Ceiling: Broken clouds 2,000 ft. (610 m)
Few clouds with towering cumulus 4,000 ft. (1,219 m)
Few clouds with towering cumulus 4,500 ft. (1,372 m)
Broken clouds 8,000 ft. (2,438 m)
Altimeter29.88 in.Hg (1012 mB)
Relative humidity74 %
Density altitude1,915 ft. (584 m)
Flight conditions Marginal Visual Meteorological Conditions
Raw dataSABE 191400Z VRB04KT 9999 FEW045TCU BKN080 28/23 Q1012 BECMG 18015G25KT 5000 SHRA BKN020 FEW040TCU RMK PP000
An error has occurred. This application may no longer respond until reloaded. Reload 🗙